• Join FlightAware (Why Join?)
  • Login
  • US Flag 
03:48PM EDT


 

Airport Tracker/Info


-or-


 

Live Flight TrackerFlight Track Log ✈ SWA3943 ✈ 11-Apr-2013 ✈ KMDW - KMCI

Flight Track Log - Related Links

Times and Time Zones

All times are in EDT time to prevent confusion due to time zone crossing. See the SWA3943 flight status page for this flight to view local times or setup timezone preferences in your user account.

Time Position Orientation Groundspeed Altitude Reporting Facility
EDT Latitude Longitude Course Direction KTS MPH feet Rate Location/Type
12:44PM 41.8167 -87.7333 285° West 189 217 1,800  Level Chicago TRACON
12:45PM 41.8333 -87.8167 285° West 243 280 3,300 2,400 Climbing Chicago TRACON
12:46PM 41.8000 -87.9000 242° Southwest 234 269 6,700 3,180 Climbing Chicago TRACON
12:46PM 41.8025 -87.9161 282° West 231 266 7,300 2,520 Climbing Chicago Center
12:47PM 41.8097 -88.0075 276° West 250 288 10,000 2,100 Climbing Chicago Center
12:48PM 41.8194 -88.1067 278° West 267 307 11,700 1,980 Climbing Chicago Center
12:49PM 41.8292 -88.2264 276° West 317 365 14,100 2,040 Climbing Chicago Center
12:50PM 41.8172 -88.3700 264° West 332 382 16,000 2,220 Climbing Chicago Center
12:51PM 41.7903 -88.5011 255° West 362 417 18,700 2,340 Climbing Chicago Center
12:52PM 41.7628 -88.6292 254° West 362 417 20,900 2,100 Climbing Chicago Center
12:53PM 41.7367 -88.7547 254° West 356 410 23,100 1,740 Climbing Chicago Center
12:54PM 41.7100 -88.8794 254° West 354 407 24,600 1,440 Climbing Chicago Center
12:56PM 41.6767 -89.0342 254° West 361 415 26,100 1,800 Climbing Chicago Center
12:57PM 41.6492 -89.1619 254° West 361 415 28,400 1,500 Climbing Chicago Center
12:58PM 41.6233 -89.2839 254° West 349 402 29,300 780 Climbing Chicago Center
12:59PM 41.5947 -89.4097 253° West 353 406 30,100 960 Climbing Chicago Center
01:00PM 41.5681 -89.5383 255° West 360 414 31,400 1,320 Climbing Chicago Center
01:01PM 41.5394 -89.6711 254° West 352 405 32,900 1,140 Climbing Chicago Center
01:02PM 41.4958 -89.7750 241° Southwest 323 372 33,800 480 Climbing Chicago Center
01:03PM 41.4525 -89.8767 240° Southwest 319 367 34,000 60 Climbing Chicago Center
01:04PM 41.4003 -89.9994 240° Southwest 318 366 34,000  Level Chicago Center
01:05PM 41.3569 -90.1014 241° Southwest 317 365 34,000  Level Chicago Center
01:06PM 41.3128 -90.2042 240° Southwest 320 368 34,000  Level Chicago Center
01:07PM 41.2689 -90.3069 240° Southwest 319 367 34,000  Level Chicago Center
01:08PM 41.2242 -90.4108 240° Southwest 324 373 34,000  Level Chicago Center
01:09PM 41.1792 -90.5133 240° Southwest 324 373 34,000  Level Chicago Center
01:10PM 41.1253 -90.6364 240° Southwest 322 371 34,000  Level Chicago Center
01:11PM 41.0808 -90.7364 240° Southwest 319 367 34,000  Level Chicago Center
01:12PM 41.0378 -90.8358 240° Southwest 314 361 34,000  Level Chicago Center
01:13PM 40.9931 -90.9339 239° Southwest 312 359 34,000  Level Chicago Center
01:14PM 40.9508 -91.0308 240° Southwest 307 353 34,000  Level Chicago Center
01:15PM 40.9086 -91.1258 240° Southwest 302 348 34,000  Level Chicago Center
01:17PM 40.8275 -91.3086 240° Southwest 302 348 34,000  Level Kansas City Center
01:18PM 40.7847 -91.4033 239° Southwest 302 348 34,000  Level Kansas City Center
01:19PM 40.7331 -91.5167 239° Southwest 303 349 34,000  Level Kansas City Center
01:20PM 40.6906 -91.6119 240° Southwest 303 349 34,000  Level Kansas City Center
01:21PM 40.6469 -91.7075 239° Southwest 305 351 34,000 -480 Level Kansas City Center
01:22PM 40.6036 -91.8042 239° Southwest 308 354 33,100 -540 Descending Kansas City Center
01:23PM 40.5597 -91.9022 240° Southwest 311 358 33,000 -60 Descending Kansas City Center
01:24PM 40.5150 -91.9994 239° Southwest 312 359 33,000  Level Kansas City Center
01:25PM 40.4608 -92.1167 239° Southwest 313 360 33,000  Level Kansas City Center
01:26PM 40.4156 -92.2156 239° Southwest 316 364 33,000  Level Kansas City Center
01:27PM 40.3711 -92.3128 239° Southwest 313 360 33,000 -180 Level Kansas City Center
01:28PM 40.3206 -92.4214 239° Southwest 312 359 32,700 -660 Descending Kansas City Center
01:29PM 40.2772 -92.5131 238° Southwest 311 358 31,700 -960 Descending Kansas City Center
01:30PM 40.2253 -92.6206 238° Southwest 312 359 30,700 -1,020 Descending Kansas City Center
01:31PM 40.1839 -92.7147 240° Southwest 312 359 29,700 -1,020 Descending Kansas City Center
01:33PM 40.1322 -92.8231 238° Southwest 314 361 28,600 -1,020 Descending Kansas City Center
01:34PM 40.0889 -92.9169 239° Southwest 314 361 27,700 -960 Descending Kansas City Center
01:35PM 40.0419 -93.0139 238° Southwest 312 359 26,600 -1,020 Descending Kansas City Center
01:36PM 39.9978 -93.1081 239° Southwest 308 354 25,600 -840 Descending Kansas City Center
01:37PM 39.9539 -93.2011 238° Southwest 305 351 24,900 -900 Descending Kansas City Center
01:38PM 39.9097 -93.2911 237° Southwest 298 343 23,800 -1,200 Descending Kansas City Center
01:39PM 39.8558 -93.4053 238° Southwest 309 356 22,400 -2,100 Descending Kansas City Center
01:40PM 39.8067 -93.5064 238° Southwest 325 374 19,500 -2,760 Descending Kansas City Center
01:41PM 39.7589 -93.6078 239° Southwest 330 380 16,800 -2,700 Descending Kansas City Center
01:42PM 39.7117 -93.7069 238° Southwest 325 374 14,100 -1,740 Descending Kansas City Center
01:44PM 39.6061 -93.9036 235° Southwest 289 333 11,500 -1,200 Descending Kansas City Center
01:45PM 39.5575 -93.9789 230° Southwest 285 328 10,500 -900 Descending Kansas City Center
01:46PM 39.5022 -94.0644 230° Southwest 278 320 9,700 -900 Descending Kansas City Center
01:47PM 39.4617 -94.1281 230° Southwest 244 281 8,700 -1,020 Descending Kansas City Center
01:48PM 39.4119 -94.2053 230° Southwest 248 285 7,600 -840 Descending Kansas City Center
01:49PM 39.3681 -94.2736 230° Southwest 256 295 7,000 -660 Descending Kansas City Center
01:50PM 39.3239 -94.3406 230° Southwest 254 292 6,300 -1,500 Descending Kansas City Center
01:51PM 39.2794 -94.4192 234° Southwest 246 283 4,000 -1,200 Descending Kansas City Center
01:52PM 39.2717 -94.4922 262° West 220 253 3,900 -480 Descending Kansas City Center
01:53PM 39.2772 -94.5628 276° West 179 206 3,100 -780 Descending Kansas City Center
01:54PM 39.2822 -94.6233 276° West 177 204 2,300 -900 Descending Kansas City Center
01:55PM 39.2867 -94.6758 276° West 132 152 1,300 -660 Descending Kansas City Center
01:56PM 39.2900 -94.7217 275° West 126 145 1,000 -300 Descending Kansas City Center
01:58PM 39.2976 -94.7139 270° West  Level Estimated